Breda International Airport

EHSE · 北布拉班特省, 荷兰

罗盘
风向 的 风向 的 风向 到 风向 220° Breda International Airport 6/24
风: 7 kt, 3 beaufort

6 kt

3 kt
改变
0 10.000 20.000 30.000 40.000
OVC 32.000 ft
METAR EHWO 040855Z AUTO 22007KT 170V280 9999 OVC320 14/11 Q1020 BLU NOSIG

METAR Breda International Airport - EHSE

Breda International Airport是Bosschenhoofd,荷兰中的中型机场。 该机场有一条跑道: 6/24. 该领域的国际民航组织标志是EHSE.

这份报告是针对2022年10月4日 10:55, 当地时间在Woensdrecht Air Base进行的。

机场观察

风向为220°,速度为7 kt。 风向在170°和280°之间变化。

可见度为10 km 或者更多。

有乌云密布在32.000 ft的高度。 破损或更高的上限为32.000 ft。

温度和风寒是14 °C。 露点为11 °C,相对湿度为82%。 海平面上的气压为1020 hPa (QNH)。

白天

今天,太阳从07:47升起,在19:13降落。 这适用于Breda International Airport,世界夏令时可能有所不同。 当地时间与世界标准时间之间的时差为+2 小时。 夏令时目前正在进行中。

公司介绍

在这个机场,你可以找到跳伞中心, 飞行学校 和 飞行俱乐部。 这个机场上的公司有Vliegles.nl, Vliegclub Seppe, MGC225, Test and Training Centre De Gouden Standaard 和 Stichting Ondersteuning Opleiding。

体会

你可以在这个机场与经验丰富的教练进行双人跳伞。 这些跳伞包括自由落体。 在Breda International Airport进行跳伞的费用是€ 230。 在这里预订Skydiving Breda

跑道

Id 标题 侧风 逆风 侧风 %
6/24 065°-245° 3 kt 6 kt 42 %

逆风成分最大的方向会被突出显示,并用于横风计算。 这并不一定意味着这个方向在使用。

乌云

32.000 ft OVC 乌云密布

温度 & 天气

温度 14 °C
露点 11 °C
相对湿度 82%
Kp-index 0 (0-9)

白天

日出
07:48
中午
13:31
日落
19:14 (8h 04m)

小工具

你想在你的网站上有一个关于Breda International Airport的当前航空天气(METAR)的小部件吗?

</> 显示HTML代码

我们和第三方通过cookies跟踪您在我们网站上的上网行为。如果您继续,我们认为您同意我们的cookie政策。 了解更多